createdAt,value
2023-01-29T00:02:21.490Z,101190.64
2023-01-29T00:04:48.811Z,101192.58
2023-01-29T00:07:15.752Z,101196.34
2023-01-29T00:09:42.813Z,101198.52
2023-01-29T00:12:10.163Z,101204.20
2023-01-29T00:14:37.215Z,101202.81
2023-01-29T00:17:04.365Z,101206.42
2023-01-29T00:19:31.509Z,101210.94
2023-01-29T00:21:58.559Z,101210.77
2023-01-29T00:24:25.566Z,101213.16
2023-01-29T00:26:52.657Z,101213.46
2023-01-29T00:29:19.902Z,101214.13
2023-01-29T00:31:47.069Z,101211.52
2023-01-29T00:34:16.344Z,101208.80
2023-01-29T00:36:45.244Z,101212.38
2023-01-29T00:39:13.024Z,101211.13
2023-01-29T00:41:58.789Z,101208.13
2023-01-29T00:44:44.691Z,101213.13
2023-01-29T00:47:31.089Z,101215.54
2023-01-29T00:49:58.232Z,101218.25
2023-01-29T00:52:25.885Z,101215.39
2023-01-29T00:54:59.029Z,101218.07
2023-01-29T00:57:29.001Z,101218.48
2023-01-29T00:59:56.279Z,101216.31
2023-01-29T01:02:42.548Z,101216.20
2023-01-29T01:05:14.365Z,101221.59
2023-01-29T01:07:43.004Z,101219.42
2023-01-29T01:10:21.301Z,101215.31
2023-01-29T01:12:51.342Z,101217.67
2023-01-29T01:15:19.386Z,101218.64
2023-01-29T01:17:46.741Z,101218.80
2023-01-29T01:20:14.209Z,101217.15
2023-01-29T01:22:41.449Z,101214.28
2023-01-29T01:25:09.116Z,101219.04
2023-01-29T01:27:41.309Z,101215.12
2023-01-29T01:30:16.667Z,101215.86
2023-01-29T01:32:43.984Z,101217.52
2023-01-29T01:35:12.529Z,101220.73
2023-01-29T01:37:39.604Z,101216.04
2023-01-29T01:40:12.982Z,101215.92
2023-01-29T01:42:40.510Z,101217.40
2023-01-29T01:45:17.987Z,101213.75
2023-01-29T01:47:56.424Z,101212.49
2023-01-29T01:50:40.182Z,101211.91
2023-01-29T01:53:11.076Z,101207.01
2023-01-29T01:55:52.124Z,101215.11
2023-01-29T01:58:27.459Z,101215.96
2023-01-29T02:00:55.900Z,101216.66
2023-01-29T02:03:43.171Z,101214.44
2023-01-29T02:06:30.287Z,101215.11
2023-01-29T02:09:32.145Z,101217.38
2023-01-29T02:11:59.191Z,101215.67
2023-01-29T02:14:27.051Z,101214.85
2023-01-29T02:16:54.004Z,101216.82
2023-01-29T02:20:05.671Z,101217.56
2023-01-29T02:22:59.292Z,101216.83
2023-01-29T02:25:55.917Z,101220.75
2023-01-29T02:28:46.768Z,101223.27
2023-01-29T02:31:33.850Z,101220.45
2023-01-29T02:34:09.094Z,101224.11
2023-01-29T02:37:01.501Z,101232.01
2023-01-29T02:39:40.974Z,101225.95
2023-01-29T02:42:25.415Z,101232.43
2023-01-29T02:44:56.301Z,101232.63
2023-01-29T02:47:28.218Z,101228.48
2023-01-29T02:50:26.166Z,101230.74
2023-01-29T02:53:09.343Z,101231.32
2023-01-29T02:55:49.388Z,101228.50
2023-01-29T02:58:35.770Z,101228.30
2023-01-29T03:01:10.546Z,101231.95
2023-01-29T03:03:49.723Z,101232.32
2023-01-29T03:06:32.473Z,101230.28
2023-01-29T03:09:04.918Z,101230.19
2023-01-29T03:11:40.115Z,101230.73
2023-01-29T03:14:17.054Z,101233.27
2023-01-29T03:16:54.472Z,101232.56
2023-01-29T03:19:42.735Z,101233.89
2023-01-29T03:22:21.019Z,101232.98
2023-01-29T03:25:11.153Z,101232.48
2023-01-29T03:28:06.454Z,101238.27
2023-01-29T03:31:02.429Z,101240.01
2023-01-29T03:33:44.472Z,101239.48
2023-01-29T03:36:38.221Z,101241.32
2023-01-29T03:39:11.602Z,101243.39
2023-01-29T03:41:47.832Z,101241.92
2023-01-29T03:44:22.140Z,101238.98
2023-01-29T03:46:57.505Z,101242.45
2023-01-29T03:49:39.362Z,101243.10
2023-01-29T03:52:20.708Z,101245.20
2023-01-29T03:55:01.425Z,101246.05
2023-01-29T03:57:42.149Z,101246.81
2023-01-29T04:00:21.514Z,101248.72
2023-01-29T04:03:21.099Z,101248.89
2023-01-29T04:05:53.440Z,101249.34
2023-01-29T04:08:29.418Z,101250.23
2023-01-29T04:11:02.757Z,101248.33
2023-01-29T04:13:33.885Z,101250.00
2023-01-29T04:16:04.526Z,101253.90
2023-01-29T04:18:55.020Z,101255.48
2023-01-29T04:21:28.039Z,101259.69
2023-01-29T04:23:55.019Z,101265.85
2023-01-29T04:26:36.550Z,101266.54
2023-01-29T04:29:22.987Z,101269.02
2023-01-29T04:31:58.974Z,101266.95
2023-01-29T04:34:28.694Z,101271.33
2023-01-29T04:37:25.311Z,101268.73
2023-01-29T04:40:00.042Z,101273.32
2023-01-29T04:42:37.368Z,101275.67
2023-01-29T04:45:16.888Z,101271.63
2023-01-29T04:47:55.385Z,101272.36
2023-01-29T04:50:36.495Z,101269.61
2023-01-29T04:53:06.431Z,101270.83
2023-01-29T04:55:40.681Z,101272.46
2023-01-29T04:58:10.579Z,101276.23
2023-01-29T05:00:46.996Z,101273.59
2023-01-29T05:03:15.638Z,101281.34
2023-01-29T05:05:46.298Z,101283.77
2023-01-29T05:08:16.515Z,101285.07
2023-01-29T05:10:43.660Z,101283.38
2023-01-29T05:13:13.965Z,101284.23
2023-01-29T05:15:48.002Z,101283.91
2023-01-29T05:18:14.936Z,101286.22
2023-01-29T05:20:44.573Z,101288.89
2023-01-29T05:23:17.006Z,101292.21
2023-01-29T05:25:45.624Z,101295.73
2023-01-29T05:28:18.666Z,101296.42
2023-01-29T05:30:48.974Z,101298.89
2023-01-29T05:33:38.675Z,101300.72
2023-01-29T05:36:07.000Z,101297.66
2023-01-29T05:38:34.196Z,101305.35
2023-01-29T05:41:01.096Z,101306.83
2023-01-29T05:43:28.083Z,101312.52
2023-01-29T05:46:00.474Z,101313.35
2023-01-29T05:48:29.141Z,101310.24
2023-01-29T05:51:04.236Z,101307.48
2023-01-29T05:53:32.447Z,101311.42
2023-01-29T05:56:02.663Z,101312.80
2023-01-29T05:58:32.044Z,101311.91
2023-01-29T06:00:59.201Z,101313.69
2023-01-29T06:03:26.171Z,101315.59
2023-01-29T06:05:53.052Z,101317.38
2023-01-29T06:08:20.129Z,101316.69
2023-01-29T06:10:47.300Z,101320.20
2023-01-29T06:13:14.310Z,101316.30
2023-01-29T06:15:42.058Z,101315.80
2023-01-29T06:18:09.054Z,101319.09
2023-01-29T06:20:37.109Z,101324.60
2023-01-29T06:23:04.150Z,101326.67
2023-01-29T06:25:31.196Z,101324.04
2023-01-29T06:27:59.565Z,101328.92
2023-01-29T06:30:28.770Z,101334.56
2023-01-29T06:32:58.972Z,101334.60
2023-01-29T06:35:26.260Z,101335.11
2023-01-29T06:37:53.221Z,101337.59
2023-01-29T06:40:20.687Z,101336.02
2023-01-29T06:42:47.694Z,101344.19
2023-01-29T06:45:14.853Z,101343.93
2023-01-29T06:47:41.801Z,101343.17
2023-01-29T06:50:09.387Z,101347.83
2023-01-29T06:52:36.276Z,101352.71
2023-01-29T06:55:03.489Z,101357.10
2023-01-29T06:57:30.688Z,101360.05
2023-01-29T06:59:57.724Z,101364.20
2023-01-29T07:02:24.709Z,101368.64
2023-01-29T07:04:51.667Z,101367.83
2023-01-29T07:07:18.769Z,101373.53
2023-01-29T07:09:46.101Z,101376.02
2023-01-29T07:12:12.991Z,101381.20
2023-01-29T07:14:40.136Z,101385.36
2023-01-29T07:17:07.338Z,101392.89
2023-01-29T07:19:34.645Z,101393.86
2023-01-29T07:22:03.432Z,101398.55
2023-01-29T07:24:30.547Z,101403.61
2023-01-29T07:26:58.400Z,101407.40
2023-01-29T07:29:25.676Z,101408.89
2023-01-29T07:31:52.727Z,101415.64
2023-01-29T07:34:19.841Z,101414.64
2023-01-29T07:36:46.752Z,101422.70
2023-01-29T07:39:13.764Z,101425.65
2023-01-29T07:41:40.930Z,101430.57
2023-01-29T07:44:15.854Z,101429.99
2023-01-29T07:46:42.903Z,101431.62
2023-01-29T07:49:10.068Z,101433.08
2023-01-29T07:51:37.063Z,101434.35
2023-01-29T07:54:04.352Z,101436.77
2023-01-29T07:56:31.410Z,101439.07
2023-01-29T07:58:58.552Z,101439.46
2023-01-29T08:01:25.623Z,101446.20
2023-01-29T08:03:53.099Z,101450.94
2023-01-29T08:06:20.318Z,101453.05
2023-01-29T08:08:47.249Z,101457.45
2023-01-29T08:11:15.529Z,101457.52
2023-01-29T08:13:42.574Z,101457.90
2023-01-29T08:16:09.776Z,101462.83
2023-01-29T08:18:38.215Z,101466.67
2023-01-29T08:21:05.364Z,101471.50
2023-01-29T08:23:32.556Z,101476.30
2023-01-29T08:25:59.683Z,101477.16
2023-01-29T08:28:26.917Z,101479.36
2023-01-29T08:30:54.011Z,101481.98
2023-01-29T08:33:29.901Z,101482.38
2023-01-29T08:36:04.267Z,101485.30
2023-01-29T08:38:31.277Z,101484.86
2023-01-29T08:40:58.219Z,101489.86
2023-01-29T08:43:25.281Z,101491.16
2023-01-29T08:45:53.072Z,101494.52
2023-01-29T08:48:20.075Z,101494.13
2023-01-29T08:50:47.228Z,101502.13
2023-01-29T08:53:14.167Z,101499.64
2023-01-29T08:55:41.574Z,101503.16
2023-01-29T08:58:11.137Z,101507.63
2023-01-29T09:00:38.492Z,101509.84
2023-01-29T09:03:08.156Z,101510.89
2023-01-29T09:05:36.469Z,101514.75
2023-01-29T09:08:03.934Z,101517.32
2023-01-29T09:10:31.893Z,101518.77
2023-01-29T09:12:58.950Z,101520.75
2023-01-29T09:15:26.213Z,101522.98
2023-01-29T09:17:54.024Z,101522.08
2023-01-29T09:20:21.725Z,101521.96
2023-01-29T09:22:49.895Z,101523.62
2023-01-29T09:25:17.453Z,101530.77
2023-01-29T09:27:44.708Z,101534.20
2023-01-29T09:30:12.474Z,101540.84
2023-01-29T09:32:55.092Z,101542.52
2023-01-29T09:35:23.524Z,101544.00
2023-01-29T09:37:51.633Z,101550.43
2023-01-29T09:40:31.285Z,101551.12
2023-01-29T09:43:04.697Z,101552.73
2023-01-29T09:45:31.948Z,101553.35
2023-01-29T09:48:02.937Z,101558.05
2023-01-29T09:50:41.994Z,101560.31
2023-01-29T09:53:12.017Z,101562.79
2023-01-29T09:55:46.629Z,101564.96
2023-01-29T09:58:32.537Z,101562.39
2023-01-29T10:01:08.456Z,101564.66
2023-01-29T10:04:09.949Z,101563.35
2023-01-29T10:06:49.471Z,101560.98
2023-01-29T10:09:19.343Z,101559.90
2023-01-29T10:12:01.495Z,101558.23
2023-01-29T10:14:44.585Z,101554.30
2023-01-29T10:17:14.603Z,101553.95
2023-01-29T10:19:41.680Z,101549.25
2023-01-29T10:22:26.338Z,101550.27
2023-01-29T10:25:10.437Z,101545.94
2023-01-29T10:27:41.530Z,101543.80
2023-01-29T10:30:29.486Z,101539.61
2023-01-29T10:33:02.182Z,101534.66
2023-01-29T10:35:50.486Z,101532.83
2023-01-29T10:38:38.889Z,101526.58
2023-01-29T10:41:12.956Z,101524.66
2023-01-29T10:44:03.035Z,101522.09
2023-01-29T10:46:44.213Z,101524.77
2023-01-29T10:49:40.477Z,101518.81
2023-01-29T10:52:11.485Z,101517.65
2023-01-29T10:54:58.710Z,101512.83
2023-01-29T10:57:40.805Z,101506.59
2023-01-29T11:00:13.408Z,101503.06
2023-01-29T11:02:48.949Z,101500.90
2023-01-29T11:05:25.033Z,101501.09
2023-01-29T11:08:05.473Z,101498.81
2023-01-29T11:10:37.456Z,101495.56
2023-01-29T11:13:05.586Z,101495.74
2023-01-29T11:15:35.207Z,101492.56
2023-01-29T11:18:04.090Z,101490.83
2023-01-29T11:20:33.284Z,101485.02
2023-01-29T11:23:00.525Z,101485.27
2023-01-29T11:25:30.002Z,101484.67
2023-01-29T11:28:00.683Z,101484.85
2023-01-29T11:30:38.955Z,101483.41
2023-01-29T11:33:24.362Z,101477.41
2023-01-29T11:35:52.892Z,101477.77
2023-01-29T11:38:22.940Z,101477.09
2023-01-29T11:40:50.067Z,101476.23
2023-01-29T11:43:33.772Z,101473.40
2023-01-29T11:46:02.952Z,101469.95
2023-01-29T11:48:41.829Z,101469.81
2023-01-29T11:51:12.828Z,101464.30
2023-01-29T11:53:45.725Z,101461.55
2023-01-29T11:56:29.719Z,101464.45
2023-01-29T11:58:58.405Z,101462.51
2023-01-29T12:01:33.775Z,101455.41
2023-01-29T12:04:01.605Z,101450.19
2023-01-29T12:06:36.869Z,101448.21
2023-01-29T12:09:11.331Z,101444.66
2023-01-29T12:11:38.458Z,101441.31
2023-01-29T12:14:26.486Z,101436.65
2023-01-29T12:17:13.296Z,101430.98
2023-01-29T12:20:06.328Z,101427.98
2023-01-29T12:22:49.044Z,101426.20
2023-01-29T12:25:37.365Z,101423.48
2023-01-29T12:28:15.404Z,101424.80
2023-01-29T12:31:00.621Z,101417.48
2023-01-29T12:33:56.197Z,101415.19
2023-01-29T12:36:44.246Z,101410.32
2023-01-29T12:39:17.813Z,101409.27
2023-01-29T12:41:58.006Z,101404.45
2023-01-29T12:44:42.495Z,101408.92
2023-01-29T12:47:32.062Z,101401.08
2023-01-29T12:50:23.131Z,101402.06
2023-01-29T12:53:19.365Z,101406.30
2023-01-29T12:55:55.678Z,101405.86
2023-01-29T12:58:29.060Z,101405.90
2023-01-29T13:01:01.323Z,101405.35
2023-01-29T13:03:41.085Z,101399.04
2023-01-29T13:06:15.362Z,101399.89
2023-01-29T13:08:50.193Z,101398.60
2023-01-29T13:11:40.905Z,101398.79
2023-01-29T13:14:29.770Z,101392.03
2023-01-29T13:17:22.957Z,101393.23
2023-01-29T13:20:00.503Z,101387.50
2023-01-29T13:22:32.163Z,101391.21
2023-01-29T13:25:05.169Z,101388.85
2023-01-29T13:27:35.534Z,101391.20
2023-01-29T13:30:03.675Z,101392.88
2023-01-29T13:32:32.965Z,101398.95
2023-01-29T13:35:14.880Z,101397.20
2023-01-29T13:37:54.543Z,101398.65
2023-01-29T13:40:35.756Z,101402.22
2023-01-29T13:43:03.789Z,101403.52
2023-01-29T13:45:43.942Z,101404.25
2023-01-29T13:48:19.235Z,101405.42
2023-01-29T13:50:47.609Z,101400.06
2023-01-29T13:53:29.946Z,101397.70
2023-01-29T13:56:29.731Z,101400.34
2023-01-29T13:58:57.947Z,101404.86
2023-01-29T14:01:49.412Z,101402.91
2023-01-29T14:04:19.669Z,101406.72
2023-01-29T14:06:53.057Z,101401.93
2023-01-29T14:09:54.552Z,101406.09
2023-01-29T14:12:22.010Z,101407.20
2023-01-29T14:14:49.246Z,101414.49
2023-01-29T14:17:18.400Z,101411.80
2023-01-29T14:19:54.261Z,101417.88
2023-01-29T14:22:24.639Z,101417.88
2023-01-29T14:24:56.507Z,101421.31
2023-01-29T14:27:28.413Z,101422.22
2023-01-29T14:30:07.625Z,101420.52
2023-01-29T14:32:34.892Z,101423.91
2023-01-29T14:35:18.334Z,101421.14
2023-01-29T14:37:49.661Z,101420.81
2023-01-29T14:40:19.687Z,101421.16
2023-01-29T14:42:55.555Z,101419.80
2023-01-29T14:45:33.535Z,101420.12
2023-01-29T14:48:10.835Z,101421.82
2023-01-29T14:50:38.171Z,101426.27
2023-01-29T14:53:12.094Z,101431.37
2023-01-29T14:55:48.965Z,101427.91
2023-01-29T14:58:26.313Z,101429.33
2023-01-29T15:00:56.664Z,101429.34
2023-01-29T15:03:32.671Z,101431.54
2023-01-29T15:06:01.388Z,101432.52
2023-01-29T15:09:02.700Z,101434.96
2023-01-29T15:11:55.939Z,101434.58
2023-01-29T15:14:33.160Z,101430.18
2023-01-29T15:17:19.236Z,101430.55
2023-01-29T15:19:48.777Z,101429.91
2023-01-29T15:22:18.663Z,101430.11
2023-01-29T15:24:48.362Z,101432.02
2023-01-29T15:27:18.889Z,101430.79
2023-01-29T15:30:00.258Z,101433.52
2023-01-29T15:32:39.676Z,101436.52
2023-01-29T15:35:11.609Z,101441.66
2023-01-29T15:37:40.167Z,101442.77
2023-01-29T15:40:16.129Z,101444.23
2023-01-29T15:42:48.960Z,101448.23
2023-01-29T15:45:42.176Z,101446.59
2023-01-29T15:48:15.700Z,101448.41
2023-01-29T15:50:43.837Z,101445.79
2023-01-29T15:53:19.793Z,101448.10
2023-01-29T15:55:47.972Z,101455.30
2023-01-29T15:58:19.526Z,101452.39
2023-01-29T16:00:55.787Z,101454.17
2023-01-29T16:03:25.647Z,101457.14
2023-01-29T16:05:53.751Z,101459.48
2023-01-29T16:08:26.562Z,101458.74
2023-01-29T16:10:56.970Z,101463.33
2023-01-29T16:13:35.941Z,101469.40
2023-01-29T16:16:05.259Z,101474.35
2023-01-29T16:18:41.074Z,101476.28
2023-01-29T16:21:26.493Z,101491.36
2023-01-29T16:24:16.108Z,101494.08
2023-01-29T16:26:47.109Z,101505.34
2023-01-29T16:29:17.644Z,101510.48
2023-01-29T16:31:47.854Z,101511.23
2023-01-29T16:34:27.079Z,101512.70
2023-01-29T16:36:55.348Z,101518.33
2023-01-29T16:39:27.831Z,101527.76
2023-01-29T16:42:11.045Z,101523.50
2023-01-29T16:44:46.086Z,101522.50
2023-01-29T16:47:16.201Z,101519.90
2023-01-29T16:49:48.955Z,101523.04
2023-01-29T16:52:28.434Z,101519.98
2023-01-29T16:55:21.598Z,101524.08
2023-01-29T16:57:54.377Z,101525.73
2023-01-29T17:00:29.892Z,101525.30
2023-01-29T17:03:03.615Z,101525.46
2023-01-29T17:05:33.827Z,101526.91
2023-01-29T17:08:00.833Z,101526.42
2023-01-29T17:10:30.306Z,101532.59
2023-01-29T17:13:03.634Z,101537.84
2023-01-29T17:15:50.944Z,101536.90
2023-01-29T17:18:20.604Z,101534.95
2023-01-29T17:20:49.074Z,101534.69
2023-01-29T17:23:16.878Z,101532.91
2023-01-29T17:25:45.286Z,101536.42
2023-01-29T17:28:17.760Z,101542.06
2023-01-29T17:30:56.711Z,101541.98
2023-01-29T17:33:32.454Z,101544.65
2023-01-29T17:35:59.685Z,101547.85
2023-01-29T17:38:26.955Z,101545.15
2023-01-29T17:41:02.458Z,101543.21
2023-01-29T17:43:29.519Z,101539.83
2023-01-29T17:45:56.512Z,101537.52
2023-01-29T17:48:29.031Z,101540.98
2023-01-29T17:50:59.576Z,101544.04
2023-01-29T17:53:44.778Z,101544.77
2023-01-29T17:56:29.689Z,101544.60
2023-01-29T17:58:57.452Z,101549.91
2023-01-29T18:01:24.528Z,101553.80
2023-01-29T18:03:51.663Z,101555.16
2023-01-29T18:06:30.037Z,101554.79
2023-01-29T18:08:57.460Z,101556.17
2023-01-29T18:11:24.830Z,101567.54
2023-01-29T18:13:52.200Z,101564.82
2023-01-29T18:16:22.226Z,101563.00
2023-01-29T18:18:50.683Z,101557.69
2023-01-29T18:21:18.238Z,101551.33
2023-01-29T18:23:45.282Z,101550.50
2023-01-29T18:26:13.318Z,101558.67
2023-01-29T18:28:43.678Z,101566.70
2023-01-29T18:31:13.164Z,101571.06
2023-01-29T18:33:41.113Z,101578.07
2023-01-29T18:36:08.769Z,101584.19
2023-01-29T18:38:35.867Z,101585.85
2023-01-29T18:41:10.752Z,101579.52
2023-01-29T18:43:39.190Z,101573.73
2023-01-29T18:46:07.854Z,101571.88
2023-01-29T18:48:35.232Z,101573.25
2023-01-29T18:51:02.586Z,101570.37
2023-01-29T18:53:29.847Z,101565.98
2023-01-29T18:56:04.618Z,101567.24
2023-01-29T18:58:36.108Z,101562.14
2023-01-29T19:01:09.694Z,101561.09
2023-01-29T19:03:38.486Z,101558.86
2023-01-29T19:06:08.107Z,101559.35
2023-01-29T19:08:35.801Z,101562.27
2023-01-29T19:11:05.821Z,101561.14
2023-01-29T19:13:33.243Z,101558.36
2023-01-29T19:16:00.667Z,101560.59
2023-01-29T19:18:29.176Z,101559.85
2023-01-29T19:20:56.370Z,101557.79
2023-01-29T19:23:23.373Z,101559.52
2023-01-29T19:25:50.665Z,101558.89
2023-01-29T19:28:17.813Z,101563.35
2023-01-29T19:30:44.998Z,101562.02
2023-01-29T19:33:12.180Z,101561.09
2023-01-29T19:35:39.266Z,101562.91
2023-01-29T19:38:06.930Z,101569.97
2023-01-29T19:40:34.776Z,101560.29
2023-01-29T19:43:01.844Z,101560.82
2023-01-29T19:45:49.869Z,101561.30
2023-01-29T19:48:21.683Z,101560.61
2023-01-29T19:50:56.893Z,101564.09
2023-01-29T19:53:24.794Z,101567.52
2023-01-29T19:56:00.596Z,101567.96
2023-01-29T19:58:28.388Z,101571.36
2023-01-29T20:01:00.878Z,101578.11
2023-01-29T20:03:29.455Z,101581.80
2023-01-29T20:06:05.827Z,101588.31
2023-01-29T20:08:34.407Z,101595.59
2023-01-29T20:11:02.475Z,101599.27
2023-01-29T20:13:29.452Z,101600.58
2023-01-29T20:15:56.521Z,101605.55
2023-01-29T20:18:27.025Z,101606.84
2023-01-29T20:20:55.377Z,101607.04
2023-01-29T20:23:36.661Z,101607.64
2023-01-29T20:26:06.781Z,101608.42
2023-01-29T20:28:34.888Z,101604.65
2023-01-29T20:31:03.259Z,101604.00
2023-01-29T20:33:30.890Z,101603.80
2023-01-29T20:36:01.437Z,101602.73
2023-01-29T20:38:31.845Z,101602.30
2023-01-29T20:41:13.141Z,101608.37
2023-01-29T20:43:40.717Z,101607.42
2023-01-29T20:46:08.184Z,101605.80
2023-01-29T20:48:36.065Z,101611.75
2023-01-29T20:51:13.287Z,101609.04
2023-01-29T20:53:41.252Z,101609.41
2023-01-29T20:56:08.739Z,101607.09
2023-01-29T20:58:36.782Z,101606.06
2023-01-29T21:01:12.315Z,101603.34
2023-01-29T21:03:40.989Z,101601.08
2023-01-29T21:06:09.565Z,101600.58
2023-01-29T21:08:37.837Z,101598.15
2023-01-29T21:11:06.644Z,101595.13
2023-01-29T21:13:36.649Z,101592.93
2023-01-29T21:16:04.532Z,101594.20
2023-01-29T21:18:32.470Z,101595.23
2023-01-29T21:20:59.621Z,101597.88
2023-01-29T21:23:26.758Z,101600.83
2023-01-29T21:25:53.840Z,101599.25
2023-01-29T21:28:23.732Z,101598.67
2023-01-29T21:30:50.751Z,101598.92
2023-01-29T21:33:17.832Z,101600.48
2023-01-29T21:35:44.972Z,101605.85
2023-01-29T21:38:12.337Z,101610.13
2023-01-29T21:40:39.381Z,101619.21
2023-01-29T21:43:12.547Z,101625.38
2023-01-29T21:45:40.845Z,101629.74
2023-01-29T21:48:09.636Z,101631.39
2023-01-29T21:50:37.379Z,101632.11
2023-01-29T21:53:05.022Z,101631.19
2023-01-29T21:55:32.758Z,101629.93
2023-01-29T21:58:00.552Z,101632.27
2023-01-29T22:00:28.648Z,101631.23
2023-01-29T22:02:55.819Z,101631.27
2023-01-29T22:05:23.123Z,101632.50
2023-01-29T22:07:50.525Z,101632.02
2023-01-29T22:10:18.807Z,101634.52
2023-01-29T22:12:46.779Z,101632.96
2023-01-29T22:15:15.136Z,101633.48
2023-01-29T22:17:42.613Z,101627.79
2023-01-29T22:20:12.280Z,101627.39
2023-01-29T22:22:39.571Z,101626.05
2023-01-29T22:25:06.985Z,101622.73
2023-01-29T22:27:34.352Z,101624.92
2023-01-29T22:30:01.876Z,101623.94
2023-01-29T22:32:29.321Z,101624.96
2023-01-29T22:34:56.710Z,101625.13
2023-01-29T22:37:25.015Z,101625.03
2023-01-29T22:39:52.030Z,101624.71
2023-01-29T22:42:20.876Z,101622.71
2023-01-29T22:44:48.814Z,101618.77
2023-01-29T22:47:16.115Z,101615.73
2023-01-29T22:49:45.786Z,101614.68
2023-01-29T22:52:14.079Z,101615.00
2023-01-29T22:54:43.375Z,101612.89
2023-01-29T22:57:13.301Z,101616.30
2023-01-29T22:59:40.841Z,101619.09
2023-01-29T23:02:08.532Z,101615.77
2023-01-29T23:04:35.890Z,101611.38
2023-01-29T23:07:03.547Z,101607.58
2023-01-29T23:09:30.641Z,101608.23
2023-01-29T23:11:57.598Z,101602.64
2023-01-29T23:14:24.600Z,101601.86
2023-01-29T23:16:51.672Z,101601.54
2023-01-29T23:19:18.917Z,101595.73
2023-01-29T23:21:45.904Z,101592.79
2023-01-29T23:24:13.289Z,101593.38
2023-01-29T23:26:58.929Z,101593.59
2023-01-29T23:29:26.310Z,101589.77
2023-01-29T23:31:53.306Z,101592.65
2023-01-29T23:34:20.765Z,101613.56
2023-01-29T23:36:47.811Z,101624.35
2023-01-29T23:39:14.904Z,101630.68
2023-01-29T23:41:42.257Z,101624.35
2023-01-29T23:44:09.304Z,101627.84
2023-01-29T23:46:36.407Z,101630.80
2023-01-29T23:49:03.797Z,101625.15
2023-01-29T23:51:31.013Z,101623.25
2023-01-29T23:53:59.090Z,101626.38
2023-01-29T23:56:26.416Z,101621.02
2023-01-29T23:58:57.797Z,101624.36
